This is the latest recevied weather packets stored in our database for station/object WC4PEM-10. If no packets are shown the sender has not sent any weather packets the latest 1 day(s).
| Time | Temp. | Humidity | Pressure | Rain* | Wind** | Luminosity | Snow |
|---|---|---|---|---|---|---|---|
| 1778035834 | 21.11° C | 75% | 1016.2 hPa | 0 mm | 1.34 m/s, 111° | - | - |
| 1778035587 | 21.11° C | 75% | 1016.3 hPa | 0 mm | 1.34 m/s, 123° | - | - |
| 1778035533 | 21.11° C | 75% | 1016.2 hPa | 0 mm | 1.34 m/s, 111° | - | - |
| 1778035287 | 21.11° C | 75% | 1016.2 hPa | 0 mm | 1.34 m/s, 111° | - | - |
| 1778035249 | 21.67° C | 74% | 1016.3 hPa | 0 mm | 1.34 m/s, 88° | - | - |
| 1778035054 | 21.67° C | 74% | 1016.3 hPa | 0 mm | 1.34 m/s, 93° | - | - |
| 1778034987 | 21.67° C | 74% | 1016.3 hPa | 0 mm | 1.34 m/s, 88° | - | - |
| 1778034958 | 21.67° C | 74% | 1016.3 hPa | 0 mm | 1.34 m/s, 93° | - | - |
| 1778034694 | 21.67° C | 75% | 1016.2 hPa | 0 mm | 1.34 m/s, 101° | - | - |
| 1778034687 | 21.67° C | 74% | 1016.3 hPa | 0 mm | 1.34 m/s, 93° | - | - |
| 1778034477 | 22.22° C | 74% | 1016.1 hPa | 0 mm | 1.34 m/s, 117° | - | - |
| 1778034387 | 21.67° C | 75% | 1016.2 hPa | 0 mm | 1.34 m/s, 101° | - | - |
| 1778034094 | 22.22° C | 73% | 1016.1 hPa | 0 mm | 1.34 m/s, 93° | - | - |
| 1778034087 | 22.22° C | 74% | 1016.1 hPa | 0 mm | 1.34 m/s, 117° | - | - |
| 1778033863 | 22.22° C | 73% | 1016.1 hPa | 0 mm | 1.34 m/s, 93° | - | - |
| 1778033791 | 22.22° C | 72% | 1015.9 hPa | 0 mm | 0.89 m/s, 93° | - | - |
| 1778033787 | 22.22° C | 73% | 1016.1 hPa | 0 mm | 1.34 m/s, 93° | - | - |
| 1778033494 | 22.22° C | 72% | 1015.9 hPa | 0 mm | 1.34 m/s, 86° | - | - |
| 1778033487 | 22.22° C | 72% | 1015.9 hPa | 0 mm | 0.89 m/s, 93° | - | - |
| 1778033187 | 22.22° C | 72% | 1015.9 hPa | 0 mm | 1.34 m/s, 86° | - | - |
| 1778032892 | 22.78° C | 70% | 1015.4 hPa | 0 mm | 2.68 m/s, 93° | - | - |
| 1778032887 | 22.22° C | 72% | 1015.9 hPa | 0 mm | 1.79 m/s, 93° | - | - |
| 1778032805 | 22.22° C | 71% | 1015.7 hPa | 0 mm | 2.24 m/s, 102° | - | - |
| 1778032587 | 22.22° C | 71% | 1015.7 hPa | 0 mm | 2.24 m/s, 102° | - | - |
| 1778032287 | 22.78° C | 71% | 1015.7 hPa | 0 mm | 2.24 m/s, 133° | - | - |
* Rain latest hour (hover to see other rain measurements)
** Current wind speed in m/s (hover to see current wind gust speed)